sensor_id;sensor_type;location;lat;lon;timestamp;P1;durP1;ratioP1;P2;durP2;ratioP2
27642;SDS011;15053;48.618;10.024;2024-02-16T00:01:41;14.38;;;7.30;;
27642;SDS011;15053;48.618;10.024;2024-02-16T00:04:07;13.45;;;7.90;;
27642;SDS011;15053;48.618;10.024;2024-02-16T00:06:34;10.85;;;8.05;;
27642;SDS011;15053;48.618;10.024;2024-02-16T00:09:01;12.75;;;8.23;;
27642;SDS011;15053;48.618;10.024;2024-02-16T00:11:27;12.90;;;8.52;;
27642;SDS011;15053;48.618;10.024;2024-02-16T00:13:55;11.65;;;7.78;;
27642;SDS011;15053;48.618;10.024;2024-02-16T00:16:21;8.80;;;7.15;;
27642;SDS011;15053;48.618;10.024;2024-02-16T00:18:48;12.77;;;8.00;;
27642;SDS011;15053;48.618;10.024;2024-02-16T00:21:15;10.77;;;8.18;;
27642;SDS011;15053;48.618;10.024;2024-02-16T00:23:43;15.23;;;8.68;;
27642;SDS011;15053;48.618;10.024;2024-02-16T00:26:11;13.07;;;7.57;;
27642;SDS011;15053;48.618;10.024;2024-02-16T00:28:37;10.65;;;8.00;;
27642;SDS011;15053;48.618;10.024;2024-02-16T00:31:04;13.10;;;8.30;;
27642;SDS011;15053;48.618;10.024;2024-02-16T00:33:32;10.68;;;7.70;;
27642;SDS011;15053;48.618;10.024;2024-02-16T00:36:00;15.95;;;8.38;;
27642;SDS011;15053;48.618;10.024;2024-02-16T00:38:27;10.80;;;7.40;;
27642;SDS011;15053;48.618;10.024;2024-02-16T00:40:53;12.45;;;7.68;;
27642;SDS011;15053;48.618;10.024;2024-02-16T00:43:19;13.27;;;8.38;;
27642;SDS011;15053;48.618;10.024;2024-02-16T00:45:46;12.25;;;8.32;;
27642;SDS011;15053;48.618;10.024;2024-02-16T00:48:14;10.73;;;8.00;;
27642;SDS011;15053;48.618;10.024;2024-02-16T00:50:41;11.23;;;8.07;;
27642;SDS011;15053;48.618;10.024;2024-02-16T00:53:09;13.85;;;8.32;;
27642;SDS011;15053;48.618;10.024;2024-02-16T00:55:36;11.55;;;8.63;;
27642;SDS011;15053;48.618;10.024;2024-02-16T00:58:03;13.52;;;8.35;;
27642;SDS011;15053;48.618;10.024;2024-02-16T01:00:30;13.73;;;7.93;;
27642;SDS011;15053;48.618;10.024;2024-02-16T01:02:57;11.43;;;8.68;;
27642;SDS011;15053;48.618;10.024;2024-02-16T01:05:24;13.27;;;8.27;;
27642;SDS011;15053;48.618;10.024;2024-02-16T01:07:50;10.88;;;8.38;;
27642;SDS011;15053;48.618;10.024;2024-02-16T01:10:17;14.25;;;9.50;;
27642;SDS011;15053;48.618;10.024;2024-02-16T01:12:44;12.77;;;9.50;;
27642;SDS011;15053;48.618;10.024;2024-02-16T01:15:10;12.73;;;9.05;;
27642;SDS011;15053;48.618;10.024;2024-02-16T01:17:37;11.57;;;9.10;;
27642;SDS011;15053;48.618;10.024;2024-02-16T01:20:06;15.40;;;8.93;;
27642;SDS011;15053;48.618;10.024;2024-02-16T01:22:37;12.07;;;8.63;;
27642;SDS011;15053;48.618;10.024;2024-02-16T01:25:04;12.60;;;8.13;;
27642;SDS011;15053;48.618;10.024;2024-02-16T01:27:31;10.50;;;7.63;;
27642;SDS011;15053;48.618;10.024;2024-02-16T01:29:58;13.48;;;8.57;;
27642;SDS011;15053;48.618;10.024;2024-02-16T01:32:26;12.95;;;9.10;;
27642;SDS011;15053;48.618;10.024;2024-02-16T01:34:53;13.70;;;9.25;;
27642;SDS011;15053;48.618;10.024;2024-02-16T01:37:19;12.45;;;8.52;;
27642;SDS011;15053;48.618;10.024;2024-02-16T01:39:46;13.32;;;8.73;;
27642;SDS011;15053;48.618;10.024;2024-02-16T01:42:12;14.18;;;9.35;;
27642;SDS011;15053;48.618;10.024;2024-02-16T01:44:39;14.35;;;9.55;;
27642;SDS011;15053;48.618;10.024;2024-02-16T01:47:05;13.27;;;9.38;;
27642;SDS011;15053;48.618;10.024;2024-02-16T01:49:32;13.90;;;9.48;;
27642;SDS011;15053;48.618;10.024;2024-02-16T01:52:00;14.05;;;9.38;;
27642;SDS011;15053;48.618;10.024;2024-02-16T01:54:26;15.10;;;10.15;;
27642;SDS011;15053;48.618;10.024;2024-02-16T01:56:53;13.70;;;9.20;;
27642;SDS011;15053;48.618;10.024;2024-02-16T01:59:21;14.52;;;9.90;;
27642;SDS011;15053;48.618;10.024;2024-02-16T02:01:49;11.27;;;8.98;;
27642;SDS011;15053;48.618;10.024;2024-02-16T02:04:15;14.43;;;9.48;;
27642;SDS011;15053;48.618;10.024;2024-02-16T02:06:42;12.35;;;9.70;;
27642;SDS011;15053;48.618;10.024;2024-02-16T02:09:09;15.20;;;10.00;;
27642;SDS011;15053;48.618;10.024;2024-02-16T02:11:36;15.18;;;10.48;;
27642;SDS011;15053;48.618;10.024;2024-02-16T02:14:04;12.82;;;9.77;;
27642;SDS011;15053;48.618;10.024;2024-02-16T02:16:30;12.10;;;9.82;;
27642;SDS011;15053;48.618;10.024;2024-02-16T02:19:10;11.60;;;9.52;;
27642;SDS011;15053;48.618;10.024;2024-02-16T02:21:36;14.18;;;9.57;;
27642;SDS011;15053;48.618;10.024;2024-02-16T02:24:03;12.77;;;9.88;;
27642;SDS011;15053;48.618;10.024;2024-02-16T02:26:30;12.15;;;9.05;;
27642;SDS011;15053;48.618;10.024;2024-02-16T02:28:57;14.90;;;10.40;;
27642;SDS011;15053;48.618;10.024;2024-02-16T02:31:23;14.18;;;9.82;;
27642;SDS011;15053;48.618;10.024;2024-02-16T02:33:49;14.65;;;10.63;;
27642;SDS011;15053;48.618;10.024;2024-02-16T02:36:16;13.20;;;10.00;;
27642;SDS011;15053;48.618;10.024;2024-02-16T02:38:43;16.23;;;11.13;;
27642;SDS011;15053;48.618;10.024;2024-02-16T02:41:10;16.80;;;10.40;;
27642;SDS011;15053;48.618;10.024;2024-02-16T02:43:37;15.43;;;11.35;;
27642;SDS011;15053;48.618;10.024;2024-02-16T02:46:04;15.75;;;11.45;;
27642;SDS011;15053;48.618;10.024;2024-02-16T02:48:30;17.55;;;10.90;;
27642;SDS011;15053;48.618;10.024;2024-02-16T02:50:57;16.40;;;12.38;;
27642;SDS011;15053;48.618;10.024;2024-02-16T02:53:27;18.00;;;13.10;;
27642;SDS011;15053;48.618;10.024;2024-02-16T02:55:54;17.15;;;12.05;;
27642;SDS011;15053;48.618;10.024;2024-02-16T02:58:20;18.70;;;12.32;;
27642;SDS011;15053;48.618;10.024;2024-02-16T03:00:47;19.60;;;12.82;;
27642;SDS011;15053;48.618;10.024;2024-02-16T03:03:13;17.48;;;12.52;;
27642;SDS011;15053;48.618;10.024;2024-02-16T03:05:41;17.50;;;12.57;;
27642;SDS011;15053;48.618;10.024;2024-02-16T03:08:08;14.77;;;11.40;;
27642;SDS011;15053;48.618;10.024;2024-02-16T03:10:37;16.70;;;11.77;;
27642;SDS011;15053;48.618;10.024;2024-02-16T03:13:03;17.13;;;12.43;;
27642;SDS011;15053;48.618;10.024;2024-02-16T03:15:30;19.08;;;11.70;;
27642;SDS011;15053;48.618;10.024;2024-02-16T03:17:56;19.05;;;13.20;;
27642;SDS011;15053;48.618;10.024;2024-02-16T03:20:23;17.63;;;12.65;;
27642;SDS011;15053;48.618;10.024;2024-02-16T03:22:50;18.58;;;13.10;;
27642;SDS011;15053;48.618;10.024;2024-02-16T03:25:16;21.38;;;14.60;;
27642;SDS011;15053;48.618;10.024;2024-02-16T03:27:43;20.45;;;15.70;;
27642;SDS011;15053;48.618;10.024;2024-02-16T03:30:09;21.55;;;16.02;;
27642;SDS011;15053;48.618;10.024;2024-02-16T03:32:36;21.58;;;15.20;;
27642;SDS011;15053;48.618;10.024;2024-02-16T03:35:04;24.13;;;16.13;;
27642;SDS011;15053;48.618;10.024;2024-02-16T03:37:30;25.92;;;16.85;;
27642;SDS011;15053;48.618;10.024;2024-02-16T03:39:57;23.75;;;15.32;;
27642;SDS011;15053;48.618;10.024;2024-02-16T03:42:24;22.33;;;15.93;;
27642;SDS011;15053;48.618;10.024;2024-02-16T03:44:50;22.10;;;14.85;;
27642;SDS011;15053;48.618;10.024;2024-02-16T03:47:17;21.73;;;14.52;;
27642;SDS011;15053;48.618;10.024;2024-02-16T03:49:43;22.58;;;14.82;;
27642;SDS011;15053;48.618;10.024;2024-02-16T03:52:10;20.42;;;15.35;;
27642;SDS011;15053;48.618;10.024;2024-02-16T03:54:36;23.00;;;15.95;;
27642;SDS011;15053;48.618;10.024;2024-02-16T03:57:03;22.20;;;16.70;;
27642;SDS011;15053;48.618;10.024;2024-02-16T03:59:32;26.35;;;17.42;;
27642;SDS011;15053;48.618;10.024;2024-02-16T04:01:59;25.55;;;17.85;;
27642;SDS011;15053;48.618;10.024;2024-02-16T04:04:25;26.42;;;17.40;;
27642;SDS011;15053;48.618;10.024;2024-02-16T04:06:53;22.52;;;16.73;;
27642;SDS011;15053;48.618;10.024;2024-02-16T04:09:19;27.98;;;18.40;;
27642;SDS011;15053;48.618;10.024;2024-02-16T04:11:46;30.05;;;17.77;;
27642;SDS011;15053;48.618;10.024;2024-02-16T04:14:13;24.60;;;17.38;;
27642;SDS011;15053;48.618;10.024;2024-02-16T04:16:42;28.92;;;19.02;;
27642;SDS011;15053;48.618;10.024;2024-02-16T04:19:11;28.30;;;19.42;;
27642;SDS011;15053;48.618;10.024;2024-02-16T04:21:38;29.63;;;18.20;;
27642;SDS011;15053;48.618;10.024;2024-02-16T04:24:05;28.10;;;19.23;;
27642;SDS011;15053;48.618;10.024;2024-02-16T04:26:31;29.55;;;19.90;;
27642;SDS011;15053;48.618;10.024;2024-02-16T04:28:58;28.65;;;18.75;;
27642;SDS011;15053;48.618;10.024;2024-02-16T04:31:24;29.38;;;19.80;;
27642;SDS011;15053;48.618;10.024;2024-02-16T04:33:51;30.65;;;20.25;;
27642;SDS011;15053;48.618;10.024;2024-02-16T04:36:19;30.90;;;20.60;;
27642;SDS011;15053;48.618;10.024;2024-02-16T04:38:46;32.25;;;20.55;;
27642;SDS011;15053;48.618;10.024;2024-02-16T04:41:12;26.38;;;18.65;;
27642;SDS011;15053;48.618;10.024;2024-02-16T04:43:39;29.25;;;19.75;;
27642;SDS011;15053;48.618;10.024;2024-02-16T04:46:06;33.88;;;20.55;;
27642;SDS011;15053;48.618;10.024;2024-02-16T04:48:32;30.48;;;21.20;;
27642;SDS011;15053;48.618;10.024;2024-02-16T04:51:00;31.45;;;19.60;;
27642;SDS011;15053;48.618;10.024;2024-02-16T04:53:28;28.15;;;17.85;;
27642;SDS011;15053;48.618;10.024;2024-02-16T04:55:54;26.90;;;18.83;;
27642;SDS011;15053;48.618;10.024;2024-02-16T04:58:21;24.85;;;18.30;;
27642;SDS011;15053;48.618;10.024;2024-02-16T05:00:48;28.85;;;19.45;;
27642;SDS011;15053;48.618;10.024;2024-02-16T05:03:15;27.23;;;19.17;;
27642;SDS011;15053;48.618;10.024;2024-02-16T05:05:42;28.88;;;19.38;;
27642;SDS011;15053;48.618;10.024;2024-02-16T05:08:09;32.60;;;19.15;;
27642;SDS011;15053;48.618;10.024;2024-02-16T05:10:35;26.63;;;19.25;;
27642;SDS011;15053;48.618;10.024;2024-02-16T05:13:02;29.13;;;19.95;;
27642;SDS011;15053;48.618;10.024;2024-02-16T05:15:28;30.52;;;21.23;;
27642;SDS011;15053;48.618;10.024;2024-02-16T05:17:55;31.20;;;21.63;;
27642;SDS011;15053;48.618;10.024;2024-02-16T05:20:21;32.63;;;21.98;;
27642;SDS011;15053;48.618;10.024;2024-02-16T05:22:48;30.17;;;21.45;;
27642;SDS011;15053;48.618;10.024;2024-02-16T05:25:16;28.42;;;21.60;;
27642;SDS011;15053;48.618;10.024;2024-02-16T05:27:44;34.05;;;22.85;;
27642;SDS011;15053;48.618;10.024;2024-02-16T05:30:11;34.30;;;23.27;;
27642;SDS011;15053;48.618;10.024;2024-02-16T05:32:42;30.02;;;20.55;;
27642;SDS011;15053;48.618;10.024;2024-02-16T05:35:11;27.65;;;19.23;;
27642;SDS011;15053;48.618;10.024;2024-02-16T05:37:44;28.73;;;20.17;;
27642;SDS011;15053;48.618;10.024;2024-02-16T05:40:13;29.20;;;20.73;;
27642;SDS011;15053;48.618;10.024;2024-02-16T05:42:54;30.58;;;21.52;;
27642;SDS011;15053;48.618;10.024;2024-02-16T05:45:24;32.55;;;21.75;;
27642;SDS011;15053;48.618;10.024;2024-02-16T05:47:52;32.00;;;20.33;;
27642;SDS011;15053;48.618;10.024;2024-02-16T05:50:20;30.48;;;21.38;;
27642;SDS011;15053;48.618;10.024;2024-02-16T05:52:48;34.10;;;22.45;;
27642;SDS011;15053;48.618;10.024;2024-02-16T05:55:17;29.42;;;21.88;;
27642;SDS011;15053;48.618;10.024;2024-02-16T06:00:14;29.25;;;20.20;;
27642;SDS011;15053;48.618;10.024;2024-02-16T06:02:42;31.13;;;20.67;;
27642;SDS011;15053;48.618;10.024;2024-02-16T06:05:08;31.23;;;21.77;;
27642;SDS011;15053;48.618;10.024;2024-02-16T06:07:35;31.23;;;21.63;;
27642;SDS011;15053;48.618;10.024;2024-02-16T06:10:04;27.42;;;20.50;;
27642;SDS011;15053;48.618;10.024;2024-02-16T06:12:35;37.13;;;24.05;;
27642;SDS011;15053;48.618;10.024;2024-02-16T06:15:03;38.63;;;25.73;;
27642;SDS011;15053;48.618;10.024;2024-02-16T06:17:30;48.20;;;29.55;;
27642;SDS011;15053;48.618;10.024;2024-02-16T06:19:56;46.20;;;28.45;;
27642;SDS011;15053;48.618;10.024;2024-02-16T06:22:23;37.95;;;24.38;;
27642;SDS011;15053;48.618;10.024;2024-02-16T06:24:49;34.15;;;23.80;;
27642;SDS011;15053;48.618;10.024;2024-02-16T06:27:16;36.20;;;23.88;;
27642;SDS011;15053;48.618;10.024;2024-02-16T06:29:43;36.80;;;25.45;;
27642;SDS011;15053;48.618;10.024;2024-02-16T06:32:09;38.40;;;25.85;;
27642;SDS011;15053;48.618;10.024;2024-02-16T06:34:38;37.03;;;24.02;;
27642;SDS011;15053;48.618;10.024;2024-02-16T06:37:05;36.90;;;26.67;;
27642;SDS011;15053;48.618;10.024;2024-02-16T06:39:32;34.40;;;25.08;;
27642;SDS011;15053;48.618;10.024;2024-02-16T06:41:58;37.55;;;24.30;;
27642;SDS011;15053;48.618;10.024;2024-02-16T06:44:26;39.30;;;24.33;;
27642;SDS011;15053;48.618;10.024;2024-02-16T06:46:53;37.05;;;24.25;;
27642;SDS011;15053;48.618;10.024;2024-02-16T06:49:20;37.20;;;24.00;;
27642;SDS011;15053;48.618;10.024;2024-02-16T06:51:46;34.85;;;23.83;;
27642;SDS011;15053;48.618;10.024;2024-02-16T06:54:13;32.03;;;23.75;;
27642;SDS011;15053;48.618;10.024;2024-02-16T06:56:41;35.28;;;24.02;;
27642;SDS011;15053;48.618;10.024;2024-02-16T06:59:07;38.03;;;24.70;;
27642;SDS011;15053;48.618;10.024;2024-02-16T07:01:35;33.58;;;23.88;;
27642;SDS011;15053;48.618;10.024;2024-02-16T07:04:02;30.95;;;23.10;;
27642;SDS011;15053;48.618;10.024;2024-02-16T07:06:29;34.80;;;22.48;;
27642;SDS011;15053;48.618;10.024;2024-02-16T07:08:56;30.92;;;22.10;;
27642;SDS011;15053;48.618;10.024;2024-02-16T07:11:23;30.05;;;22.98;;
27642;SDS011;15053;48.618;10.024;2024-02-16T07:13:49;33.00;;;23.52;;
27642;SDS011;15053;48.618;10.024;2024-02-16T07:16:16;31.13;;;23.08;;
27642;SDS011;15053;48.618;10.024;2024-02-16T07:18:42;30.23;;;21.48;;
27642;SDS011;15053;48.618;10.024;2024-02-16T07:21:09;34.95;;;23.80;;
27642;SDS011;15053;48.618;10.024;2024-02-16T07:23:36;32.05;;;22.80;;
27642;SDS011;15053;48.618;10.024;2024-02-16T07:26:03;32.70;;;22.83;;
27642;SDS011;15053;48.618;10.024;2024-02-16T07:28:33;35.13;;;23.90;;
27642;SDS011;15053;48.618;10.024;2024-02-16T07:30:59;31.67;;;22.92;;
27642;SDS011;15053;48.618;10.024;2024-02-16T07:33:26;29.90;;;21.48;;
27642;SDS011;15053;48.618;10.024;2024-02-16T07:35:55;33.72;;;23.05;;
27642;SDS011;15053;48.618;10.024;2024-02-16T07:38:22;31.67;;;22.13;;
27642;SDS011;15053;48.618;10.024;2024-02-16T07:40:49;30.20;;;22.25;;
27642;SDS011;15053;48.618;10.024;2024-02-16T07:43:17;28.63;;;22.42;;
27642;SDS011;15053;48.618;10.024;2024-02-16T07:45:44;47.20;;;21.90;;
27642;SDS011;15053;48.618;10.024;2024-02-16T07:48:11;25.70;;;18.25;;
27642;SDS011;15053;48.618;10.024;2024-02-16T07:50:39;31.30;;;21.27;;
27642;SDS011;15053;48.618;10.024;2024-02-16T07:53:05;27.33;;;19.52;;
27642;SDS011;15053;48.618;10.024;2024-02-16T07:55:32;29.77;;;19.52;;
27642;SDS011;15053;48.618;10.024;2024-02-16T07:57:58;28.40;;;19.33;;
27642;SDS011;15053;48.618;10.024;2024-02-16T08:00:25;27.83;;;19.70;;
27642;SDS011;15053;48.618;10.024;2024-02-16T08:02:51;33.67;;;19.65;;
27642;SDS011;15053;48.618;10.024;2024-02-16T08:05:18;27.92;;;19.05;;
27642;SDS011;15053;48.618;10.024;2024-02-16T08:07:46;27.42;;;18.38;;
27642;SDS011;15053;48.618;10.024;2024-02-16T08:10:13;25.48;;;18.88;;
27642;SDS011;15053;48.618;10.024;2024-02-16T08:12:40;24.25;;;18.30;;
27642;SDS011;15053;48.618;10.024;2024-02-16T08:15:07;28.10;;;19.70;;
27642;SDS011;15053;48.618;10.024;2024-02-16T08:17:34;33.53;;;23.92;;
27642;SDS011;15053;48.618;10.024;2024-02-16T08:20:02;30.15;;;21.83;;
27642;SDS011;15053;48.618;10.024;2024-02-16T08:22:29;31.00;;;21.60;;
27642;SDS011;15053;48.618;10.024;2024-02-16T08:24:56;32.00;;;19.70;;
27642;SDS011;15053;48.618;10.024;2024-02-16T08:27:22;29.60;;;20.15;;
27642;SDS011;15053;48.618;10.024;2024-02-16T08:29:49;28.27;;;20.15;;
27642;SDS011;15053;48.618;10.024;2024-02-16T08:32:17;33.90;;;22.15;;
27642;SDS011;15053;48.618;10.024;2024-02-16T08:34:44;20.73;;;14.75;;
27642;SDS011;15053;48.618;10.024;2024-02-16T08:37:10;23.40;;;14.52;;
27642;SDS011;15053;48.618;10.024;2024-02-16T08:39:38;16.17;;;11.65;;
27642;SDS011;15053;48.618;10.024;2024-02-16T08:42:05;15.90;;;11.57;;
27642;SDS011;15053;48.618;10.024;2024-02-16T08:44:32;16.25;;;12.32;;
27642;SDS011;15053;48.618;10.024;2024-02-16T08:46:58;19.20;;;12.70;;
27642;SDS011;15053;48.618;10.024;2024-02-16T08:49:25;17.83;;;12.55;;
27642;SDS011;15053;48.618;10.024;2024-02-16T08:51:52;14.88;;;10.68;;
27642;SDS011;15053;48.618;10.024;2024-02-16T08:54:18;16.02;;;10.27;;
27642;SDS011;15053;48.618;10.024;2024-02-16T08:56:46;13.75;;;10.70;;
27642;SDS011;15053;48.618;10.024;2024-02-16T08:59:14;15.50;;;10.23;;
27642;SDS011;15053;48.618;10.024;2024-02-16T09:01:42;13.57;;;9.88;;
27642;SDS011;15053;48.618;10.024;2024-02-16T09:04:09;11.35;;;8.73;;
27642;SDS011;15053;48.618;10.024;2024-02-16T09:06:35;14.77;;;9.45;;
27642;SDS011;15053;48.618;10.024;2024-02-16T09:09:03;9.98;;;8.02;;
27642;SDS011;15053;48.618;10.024;2024-02-16T09:11:29;12.52;;;8.88;;
27642;SDS011;15053;48.618;10.024;2024-02-16T09:13:56;10.52;;;8.18;;
27642;SDS011;15053;48.618;10.024;2024-02-16T09:16:23;10.68;;;7.70;;
27642;SDS011;15053;48.618;10.024;2024-02-16T09:18:51;13.20;;;8.13;;
27642;SDS011;15053;48.618;10.024;2024-02-16T09:21:20;10.30;;;7.43;;
27642;SDS011;15053;48.618;10.024;2024-02-16T09:23:50;11.27;;;8.13;;
27642;SDS011;15053;48.618;10.024;2024-02-16T09:26:16;10.63;;;7.78;;
27642;SDS011;15053;48.618;10.024;2024-02-16T09:28:43;13.13;;;7.95;;
27642;SDS011;15053;48.618;10.024;2024-02-16T09:31:13;10.27;;;6.88;;
27642;SDS011;15053;48.618;10.024;2024-02-16T09:33:41;9.82;;;6.38;;
27642;SDS011;15053;48.618;10.024;2024-02-16T09:36:07;6.95;;;5.93;;
27642;SDS011;15053;48.618;10.024;2024-02-16T09:38:34;9.57;;;5.15;;
27642;SDS011;15053;48.618;10.024;2024-02-16T09:41:01;7.63;;;5.03;;
27642;SDS011;15053;48.618;10.024;2024-02-16T09:43:29;8.30;;;4.95;;
27642;SDS011;15053;48.618;10.024;2024-02-16T09:45:56;8.77;;;5.65;;
27642;SDS011;15053;48.618;10.024;2024-02-16T09:48:25;5.78;;;4.70;;
27642;SDS011;15053;48.618;10.024;2024-02-16T09:50:54;7.32;;;5.00;;
27642;SDS011;15053;48.618;10.024;2024-02-16T09:53:24;7.53;;;4.85;;
27642;SDS011;15053;48.618;10.024;2024-02-16T09:58:20;8.10;;;5.63;;
27642;SDS011;15053;48.618;10.024;2024-02-16T10:00:50;9.05;;;6.15;;
27642;SDS011;15053;48.618;10.024;2024-02-16T10:03:22;9.65;;;5.95;;
27642;SDS011;15053;48.618;10.024;2024-02-16T10:05:52;8.85;;;5.38;;
27642;SDS011;15053;48.618;10.024;2024-02-16T10:08:30;9.43;;;4.85;;
27642;SDS011;15053;48.618;10.024;2024-02-16T10:11:05;7.35;;;4.60;;
27642;SDS011;15053;48.618;10.024;2024-02-16T10:13:32;6.07;;;3.97;;
27642;SDS011;15053;48.618;10.024;2024-02-16T10:16:05;6.32;;;4.03;;
27642;SDS011;15053;48.618;10.024;2024-02-16T10:18:38;4.90;;;3.60;;
27642;SDS011;15053;48.618;10.024;2024-02-16T10:21:05;4.18;;;3.50;;
27642;SDS011;15053;48.618;10.024;2024-02-16T10:23:32;4.80;;;3.00;;
27642;SDS011;15053;48.618;10.024;2024-02-16T10:26:01;3.85;;;2.60;;
27642;SDS011;15053;48.618;10.024;2024-02-16T10:28:28;3.90;;;2.80;;
27642;SDS011;15053;48.618;10.024;2024-02-16T10:30:58;2.90;;;2.00;;
27642;SDS011;15053;48.618;10.024;2024-02-16T10:33:29;2.67;;;2.20;;
27642;SDS011;15053;48.618;10.024;2024-02-16T10:35:58;5.38;;;2.45;;
27642;SDS011;15053;48.618;10.024;2024-02-16T10:38:29;5.45;;;2.55;;
27642;SDS011;15053;48.618;10.024;2024-02-16T10:40:56;7.63;;;2.17;;
27642;SDS011;15053;48.618;10.024;2024-02-16T10:43:26;3.45;;;2.35;;
27642;SDS011;15053;48.618;10.024;2024-02-16T10:45:53;2.92;;;2.10;;
27642;SDS011;15053;48.618;10.024;2024-02-16T10:48:21;2.83;;;2.05;;
27642;SDS011;15053;48.618;10.024;2024-02-16T10:50:47;3.25;;;1.85;;
27642;SDS011;15053;48.618;10.024;2024-02-16T10:55:49;4.32;;;2.58;;
27642;SDS011;15053;48.618;10.024;2024-02-16T10:58:16;2.72;;;1.90;;
27642;SDS011;15053;48.618;10.024;2024-02-16T11:03:20;3.80;;;1.70;;
27642;SDS011;15053;48.618;10.024;2024-02-16T11:05:49;2.47;;;1.77;;
27642;SDS011;15053;48.618;10.024;2024-02-16T11:08:17;2.88;;;2.10;;
27642;SDS011;15053;48.618;10.024;2024-02-16T11:10:59;2.88;;;1.80;;
27642;SDS011;15053;48.618;10.024;2024-02-16T11:13:27;2.80;;;2.08;;
27642;SDS011;15053;48.618;10.024;2024-02-16T11:16:08;2.28;;;1.98;;
27642;SDS011;15053;48.618;10.024;2024-02-16T11:18:39;2.60;;;1.70;;
27642;SDS011;15053;48.618;10.024;2024-02-16T11:21:14;3.83;;;1.88;;
27642;SDS011;15053;48.618;10.024;2024-02-16T11:23:42;2.65;;;1.95;;
27642;SDS011;15053;48.618;10.024;2024-02-16T11:26:09;5.28;;;2.03;;
27642;SDS011;15053;48.618;10.024;2024-02-16T11:28:38;3.05;;;1.92;;
27642;SDS011;15053;48.618;10.024;2024-02-16T11:31:07;2.70;;;1.95;;
27642;SDS011;15053;48.618;10.024;2024-02-16T11:33:34;3.85;;;1.90;;
27642;SDS011;15053;48.618;10.024;2024-02-16T11:36:02;8.93;;;3.30;;
27642;SDS011;15053;48.618;10.024;2024-02-16T11:38:30;5.07;;;3.00;;
27642;SDS011;15053;48.618;10.024;2024-02-16T11:41:00;4.93;;;2.22;;
27642;SDS011;15053;48.618;10.024;2024-02-16T11:43:28;5.30;;;1.92;;
27642;SDS011;15053;48.618;10.024;2024-02-16T11:45:55;2.72;;;2.08;;
27642;SDS011;15053;48.618;10.024;2024-02-16T11:48:24;3.92;;;2.10;;
27642;SDS011;15053;48.618;10.024;2024-02-16T11:51:02;5.03;;;2.30;;
27642;SDS011;15053;48.618;10.024;2024-02-16T11:53:30;5.72;;;2.72;;
27642;SDS011;15053;48.618;10.024;2024-02-16T11:55:57;5.78;;;1.80;;
27642;SDS011;15053;48.618;10.024;2024-02-16T11:58:24;2.85;;;1.77;;
27642;SDS011;15053;48.618;10.024;2024-02-16T12:00:51;6.63;;;3.22;;
27642;SDS011;15053;48.618;10.024;2024-02-16T12:03:19;4.82;;;2.75;;
27642;SDS011;15053;48.618;10.024;2024-02-16T12:08:18;5.78;;;2.50;;
27642;SDS011;15053;48.618;10.024;2024-02-16T12:10:49;4.07;;;2.10;;
27642;SDS011;15053;48.618;10.024;2024-02-16T12:13:16;4.03;;;1.75;;
27642;SDS011;15053;48.618;10.024;2024-02-16T12:15:47;3.38;;;2.20;;
27642;SDS011;15053;48.618;10.024;2024-02-16T12:18:19;4.10;;;1.65;;
27642;SDS011;15053;48.618;10.024;2024-02-16T12:21:05;3.47;;;1.98;;
27642;SDS011;15053;48.618;10.024;2024-02-16T12:23:33;1.98;;;1.55;;
27642;SDS011;15053;48.618;10.024;2024-02-16T12:26:00;4.18;;;2.00;;
27642;SDS011;15053;48.618;10.024;2024-02-16T12:28:29;5.47;;;2.38;;
27642;SDS011;15053;48.618;10.024;2024-02-16T12:31:00;6.60;;;2.08;;
27642;SDS011;15053;48.618;10.024;2024-02-16T12:33:29;3.22;;;1.90;;
27642;SDS011;15053;48.618;10.024;2024-02-16T12:35:56;2.60;;;1.80;;
27642;SDS011;15053;48.618;10.024;2024-02-16T12:38:23;3.30;;;2.03;;
27642;SDS011;15053;48.618;10.024;2024-02-16T12:40:50;6.22;;;2.15;;
27642;SDS011;15053;48.618;10.024;2024-02-16T12:43:16;3.28;;;2.03;;
27642;SDS011;15053;48.618;10.024;2024-02-16T12:45:44;2.55;;;1.70;;
27642;SDS011;15053;48.618;10.024;2024-02-16T12:48:11;5.57;;;1.80;;
27642;SDS011;15053;48.618;10.024;2024-02-16T12:50:40;4.63;;;2.20;;
27642;SDS011;15053;48.618;10.024;2024-02-16T12:53:08;5.20;;;2.00;;
27642;SDS011;15053;48.618;10.024;2024-02-16T12:55:35;5.72;;;2.05;;
27642;SDS011;15053;48.618;10.024;2024-02-16T12:58:02;3.60;;;2.10;;
27642;SDS011;15053;48.618;10.024;2024-02-16T13:00:29;3.50;;;2.20;;
27642;SDS011;15053;48.618;10.024;2024-02-16T13:02:56;4.60;;;2.70;;
27642;SDS011;15053;48.618;10.024;2024-02-16T13:05:22;4.78;;;2.03;;
27642;SDS011;15053;48.618;10.024;2024-02-16T13:07:49;4.93;;;2.22;;
27642;SDS011;15053;48.618;10.024;2024-02-16T13:10:16;4.93;;;2.13;;
27642;SDS011;15053;48.618;10.024;2024-02-16T13:12:43;2.95;;;1.92;;
27642;SDS011;15053;48.618;10.024;2024-02-16T13:15:10;5.00;;;1.98;;
27642;SDS011;15053;48.618;10.024;2024-02-16T13:17:53;2.83;;;2.00;;
27642;SDS011;15053;48.618;10.024;2024-02-16T13:20:20;3.40;;;2.13;;
27642;SDS011;15053;48.618;10.024;2024-02-16T13:22:47;6.78;;;2.47;;
27642;SDS011;15053;48.618;10.024;2024-02-16T13:25:13;6.07;;;2.85;;
27642;SDS011;15053;48.618;10.024;2024-02-16T13:27:41;4.30;;;2.00;;
27642;SDS011;15053;48.618;10.024;2024-02-16T13:30:08;3.15;;;2.10;;
27642;SDS011;15053;48.618;10.024;2024-02-16T13:32:35;4.95;;;2.47;;
27642;SDS011;15053;48.618;10.024;2024-02-16T13:35:06;9.15;;;2.63;;
27642;SDS011;15053;48.618;10.024;2024-02-16T13:37:33;6.75;;;2.63;;
27642;SDS011;15053;48.618;10.024;2024-02-16T13:39:59;4.75;;;2.30;;
27642;SDS011;15053;48.618;10.024;2024-02-16T13:42:26;4.90;;;2.63;;
27642;SDS011;15053;48.618;10.024;2024-02-16T13:44:54;5.63;;;2.67;;
27642;SDS011;15053;48.618;10.024;2024-02-16T13:47:21;8.13;;;2.78;;
27642;SDS011;15053;48.618;10.024;2024-02-16T13:49:48;8.80;;;2.95;;
27642;SDS011;15053;48.618;10.024;2024-02-16T13:52:15;7.78;;;2.78;;
27642;SDS011;15053;48.618;10.024;2024-02-16T13:54:41;5.68;;;3.08;;
27642;SDS011;15053;48.618;10.024;2024-02-16T13:57:08;5.40;;;2.33;;
27642;SDS011;15053;48.618;10.024;2024-02-16T13:59:34;3.63;;;2.60;;
27642;SDS011;15053;48.618;10.024;2024-02-16T14:02:01;3.65;;;2.45;;
27642;SDS011;15053;48.618;10.024;2024-02-16T14:04:28;4.40;;;2.45;;
27642;SDS011;15053;48.618;10.024;2024-02-16T14:06:55;4.20;;;2.80;;
27642;SDS011;15053;48.618;10.024;2024-02-16T14:09:22;5.70;;;2.92;;
27642;SDS011;15053;48.618;10.024;2024-02-16T14:11:59;5.38;;;3.10;;
27642;SDS011;15053;48.618;10.024;2024-02-16T14:14:26;5.47;;;3.15;;
27642;SDS011;15053;48.618;10.024;2024-02-16T14:17:03;4.45;;;3.20;;
27642;SDS011;15053;48.618;10.024;2024-02-16T14:19:30;6.75;;;3.40;;
27642;SDS011;15053;48.618;10.024;2024-02-16T14:21:57;8.07;;;3.75;;
27642;SDS011;15053;48.618;10.024;2024-02-16T14:24:24;9.20;;;3.50;;
27642;SDS011;15053;48.618;10.024;2024-02-16T14:26:51;4.45;;;3.05;;
27642;SDS011;15053;48.618;10.024;2024-02-16T14:29:20;4.85;;;2.95;;
27642;SDS011;15053;48.618;10.024;2024-02-16T14:31:47;6.72;;;3.05;;
27642;SDS011;15053;48.618;10.024;2024-02-16T14:34:15;4.82;;;3.25;;
27642;SDS011;15053;48.618;10.024;2024-02-16T14:36:42;7.97;;;2.92;;